Time;durP1;ratioP1;P1;durP2;ratioP2;P2;SDS_P1;SDS_P2;PMS_P1;PMS_P2;Temp;Humidity;BMP_temperature;BMP_pressure;BME280_temperature;BME280_humidity;BME280_pressure;Samples;Min_cycle;Max_cycle;Signal;HPM_P1;HPM_P2
2023/08/10 00:00:11;;;;;;;5.43;2.08;;;;;;;;;;5135516;27;20055;-60
2023/08/10 00:02:39;;;;;;;6.97;2.20;;;;;;;;;;5135584;27;20054;-60
2023/08/10 00:05:06;;;;;;;5.05;2.13;;;;;;;;;;5127070;27;20047;-59
2023/08/10 00:07:34;;;;;;;3.67;2.10;;;;;;;;;;5114359;27;20055;-59
2023/08/10 00:10:02;;;;;;;6.13;2.25;;;;;;;;;;5115236;28;20062;-59
2023/08/10 00:12:29;;;;;;;4.80;2.22;;;;;;;;;;5114867;28;20417;-59
2023/08/10 00:14:56;;;;;;;4.28;2.20;;;;;;;;;;5114849;28;20059;-59
2023/08/10 00:17:28;;;;;;;4.38;2.53;;;;;;;;;;5114650;28;20051;-59
2023/08/10 00:19:55;;;;;;;6.15;2.45;;;;;;;;;;5115045;27;20496;-59
2023/08/10 00:22:22;;;;;;;6.50;2.53;;;;;;;;;;5125371;27;20051;-60
2023/08/10 00:24:53;;;;;;;3.78;2.38;;;;;;;;;;5113778;28;20048;-59
2023/08/10 00:27:20;;;;;;;4.15;2.00;;;;;;;;;;5114638;28;20051;-59
2023/08/10 00:29:47;;;;;;;8.07;2.30;;;;;;;;;;5114644;28;20154;-59
2023/08/10 00:32:16;;;;;;;5.07;2.13;;;;;;;;;;5114214;28;20052;-60
2023/08/10 00:34:45;;;;;;;6.60;2.50;;;;;;;;;;5113111;28;20055;-60
2023/08/10 00:37:12;;;;;;;8.15;2.70;;;;;;;;;;5115197;27;20051;-59
2023/08/10 00:39:39;;;;;;;5.63;2.40;;;;;;;;;;5114156;28;20066;-59
2023/08/10 00:42:08;;;;;;;5.57;2.20;;;;;;;;;;5114503;28;20055;-60
2023/08/10 00:44:39;;;;;;;5.63;2.80;;;;;;;;;;5114063;28;20052;-59
2023/08/10 00:47:06;;;;;;;5.63;2.70;;;;;;;;;;5114075;28;20059;-60
2023/08/10 00:49:34;;;;;;;7.68;2.60;;;;;;;;;;5113381;28;20058;-60
2023/08/10 00:52:00;;;;;;;6.57;2.55;;;;;;;;;;5113200;28;20054;-59
2023/08/10 00:54:29;;;;;;;6.22;2.65;;;;;;;;;;5114182;28;20059;-59
2023/08/10 00:56:56;;;;;;;7.63;2.97;;;;;;;;;;5113885;28;20060;-59
2023/08/10 00:59:25;;;;;;;6.30;2.67;;;;;;;;;;5113956;28;20440;-59
2023/08/10 01:01:53;;;;;;;7.00;3.10;;;;;;;;;;5114466;28;20055;-59
2023/08/10 01:04:19;;;;;;;8.15;2.83;;;;;;;;;;5112919;27;20047;-60
2023/08/10 01:06:49;;;;;;;5.32;2.63;;;;;;;;;;5114337;27;20047;-60
2023/08/10 01:09:20;;;;;;;4.68;2.28;;;;;;;;;;5113939;28;20055;-59
2023/08/10 01:11:50;;;;;;;6.65;2.67;;;;;;;;;;5114022;28;20494;-59
2023/08/10 01:14:20;;;;;;;6.20;2.65;;;;;;;;;;5113406;28;20048;-59
2023/08/10 01:16:49;;;;;;;3.58;2.60;;;;;;;;;;5113166;28;20051;-60
2023/08/10 01:19:24;;;;;;;5.20;2.42;;;;;;;;;;5112014;28;20141;-59
2023/08/10 01:21:55;;;;;;;6.05;2.70;;;;;;;;;;5112035;28;20048;-60
2023/08/10 01:24:35;;;;;;;6.80;2.35;;;;;;;;;;5113489;28;20058;-59
2023/08/10 01:27:04;;;;;;;5.57;2.67;;;;;;;;;;5093324;28;20425;-60
2023/08/10 01:29:31;;;;;;;4.20;2.25;;;;;;;;;;5093425;28;20393;-60
2023/08/10 01:31:57;;;;;;;3.58;2.38;;;;;;;;;;5093275;28;20052;-60
2023/08/10 01:34:24;;;;;;;4.68;2.08;;;;;;;;;;5076536;28;20052;-60
2023/08/10 01:36:51;;;;;;;5.45;2.40;;;;;;;;;;5090731;28;20052;-60
2023/08/10 01:39:18;;;;;;;4.50;2.30;;;;;;;;;;5090901;28;20055;-60
2023/08/10 01:41:45;;;;;;;3.97;2.25;;;;;;;;;;5092638;28;20052;-60
2023/08/10 01:44:13;;;;;;;6.88;2.15;;;;;;;;;;5093129;28;20461;-60
2023/08/10 01:46:41;;;;;;;6.25;2.53;;;;;;;;;;5092843;28;20052;-60
2023/08/10 01:49:13;;;;;;;3.88;2.00;;;;;;;;;;5092366;28;20067;-60
2023/08/10 01:51:41;;;;;;;4.82;2.20;;;;;;;;;;5092303;28;20074;-59
2023/08/10 01:54:12;;;;;;;6.60;2.70;;;;;;;;;;5092464;28;20051;-60
2023/08/10 01:56:39;;;;;;;4.32;2.50;;;;;;;;;;5093009;28;20052;-60
2023/08/10 01:59:06;;;;;;;5.47;2.92;;;;;;;;;;5091671;28;20163;-59
2023/08/10 02:01:34;;;;;;;6.75;2.97;;;;;;;;;;5092561;28;20052;-59
2023/08/10 02:04:01;;;;;;;4.15;2.58;;;;;;;;;;5092497;28;20071;-59
2023/08/10 02:06:30;;;;;;;5.80;2.58;;;;;;;;;;5091916;28;20495;-59
2023/08/10 02:08:58;;;;;;;5.90;2.47;;;;;;;;;;5092548;28;20062;-60
2023/08/10 02:11:27;;;;;;;5.82;2.92;;;;;;;;;;5092346;28;20493;-60
2023/08/10 02:13:54;;;;;;;7.05;3.03;;;;;;;;;;5091935;28;20048;-60
2023/08/10 02:16:21;;;;;;;3.85;2.60;;;;;;;;;;5092611;28;20059;-60
2023/08/10 02:18:49;;;;;;;6.20;2.58;;;;;;;;;;5092002;28;20488;-59
2023/08/10 02:21:16;;;;;;;6.90;2.88;;;;;;;;;;5092090;28;20055;-60
2023/08/10 02:23:43;;;;;;;6.47;2.85;;;;;;;;;;5092773;28;20401;-59
2023/08/10 02:26:10;;;;;;;5.15;2.92;;;;;;;;;;5092258;28;20101;-60
2023/08/10 02:28:36;;;;;;;6.72;3.13;;;;;;;;;;5092326;28;20063;-60
2023/08/10 02:31:04;;;;;;;7.75;3.50;;;;;;;;;;5092314;28;20048;-60
2023/08/10 02:33:31;;;;;;;4.93;2.95;;;;;;;;;;5100499;28;20435;-60
2023/08/10 02:35:59;;;;;;;7.93;3.08;;;;;;;;;;5115516;28;20047;-59
2023/08/10 02:38:26;;;;;;;6.47;3.10;;;;;;;;;;5133050;28;20466;-60
2023/08/10 02:40:52;;;;;;;6.80;3.30;;;;;;;;;;5133085;28;20047;-60
2023/08/10 02:43:19;;;;;;;5.40;2.80;;;;;;;;;;5132636;28;20054;-60
2023/08/10 02:45:46;;;;;;;6.00;3.22;;;;;;;;;;5133151;28;20059;-60
2023/08/10 02:48:13;;;;;;;8.00;3.53;;;;;;;;;;5135517;27;20506;-59
2023/08/10 02:50:40;;;;;;;6.63;2.95;;;;;;;;;;5133703;27;20380;-59
2023/08/10 02:53:08;;;;;;;4.95;2.75;;;;;;;;;;5137145;27;20454;-60
2023/08/10 02:55:35;;;;;;;5.45;3.00;;;;;;;;;;5136993;27;20051;-59
2023/08/10 02:58:02;;;;;;;5.50;2.85;;;;;;;;;;5136876;27;20062;-59
2023/08/10 03:00:29;;;;;;;5.18;2.70;;;;;;;;;;5136947;27;20051;-60
2023/08/10 03:02:55;;;;;;;4.80;2.55;;;;;;;;;;5136374;27;20051;-60
2023/08/10 03:05:22;;;;;;;5.95;2.80;;;;;;;;;;5132176;27;20395;-60
2023/08/10 03:07:49;;;;;;;6.00;2.65;;;;;;;;;;5115679;28;20051;-60
2023/08/10 03:10:18;;;;;;;7.55;3.30;;;;;;;;;;5115943;28;20047;-59
2023/08/10 03:12:44;;;;;;;5.07;2.72;;;;;;;;;;5115393;27;20051;-59
2023/08/10 03:15:11;;;;;;;8.27;2.72;;;;;;;;;;5116050;28;20050;-60
2023/08/10 03:17:39;;;;;;;4.70;2.40;;;;;;;;;;5115710;28;20070;-60
2023/08/10 03:20:12;;;;;;;7.63;3.25;;;;;;;;;;5114972;27;20416;-60
2023/08/10 03:22:39;;;;;;;6.40;2.75;;;;;;;;;;5115625;28;20052;-60
2023/08/10 03:25:06;;;;;;;6.93;2.85;;;;;;;;;;5115826;28;20044;-60
2023/08/10 03:27:34;;;;;;;5.75;2.75;;;;;;;;;;5115682;28;20047;-60
2023/08/10 03:30:01;;;;;;;5.05;2.78;;;;;;;;;;5115753;28;20396;-61
2023/08/10 03:32:28;;;;;;;7.78;2.88;;;;;;;;;;5116016;28;20071;-60
2023/08/10 03:34:55;;;;;;;5.10;2.60;;;;;;;;;;5110572;27;20389;-60
2023/08/10 03:37:21;;;;;;;6.47;2.95;;;;;;;;;;5115165;28;20054;-60
2023/08/10 03:39:48;;;;;;;5.68;2.88;;;;;;;;;;5115842;28;20043;-61
2023/08/10 03:42:15;;;;;;;4.70;2.60;;;;;;;;;;5115768;28;20058;-60
2023/08/10 03:44:44;;;;;;;4.90;2.53;;;;;;;;;;5115402;28;20059;-60
2023/08/10 03:47:10;;;;;;;5.15;2.67;;;;;;;;;;5115548;28;20047;-60
2023/08/10 03:49:37;;;;;;;10.40;3.30;;;;;;;;;;5115820;27;20051;-60
2023/08/10 03:52:04;;;;;;;7.90;2.97;;;;;;;;;;5114990;28;20055;-60
2023/08/10 03:54:31;;;;;;;5.72;2.60;;;;;;;;;;5115294;28;20048;-59
2023/08/10 03:56:58;;;;;;;6.60;3.22;;;;;;;;;;5115008;28;20397;-60
2023/08/10 03:59:25;;;;;;;7.75;3.00;;;;;;;;;;5113980;28;20060;-60
2023/08/10 04:01:54;;;;;;;7.13;2.80;;;;;;;;;;5115077;28;20063;-60
2023/08/10 04:04:20;;;;;;;4.80;2.70;;;;;;;;;;5115159;27;20048;-60
2023/08/10 04:06:47;;;;;;;8.98;3.03;;;;;;;;;;5114781;28;20171;-60
2023/08/10 04:09:14;;;;;;;4.53;2.30;;;;;;;;;;5114794;28;20055;-60
2023/08/10 04:11:41;;;;;;;11.13;3.05;;;;;;;;;;5114829;28;20050;-61
2023/08/10 04:14:07;;;;;;;5.90;2.90;;;;;;;;;;5114874;28;20055;-60
2023/08/10 04:16:34;;;;;;;6.72;3.10;;;;;;;;;;5113894;27;20078;-60
2023/08/10 04:19:02;;;;;;;6.40;2.63;;;;;;;;;;5115887;27;20050;-59
2023/08/10 04:21:29;;;;;;;7.40;3.25;;;;;;;;;;5114431;28;20056;-60
2023/08/10 04:23:56;;;;;;;4.25;2.75;;;;;;;;;;5114193;28;20051;-61
2023/08/10 04:26:23;;;;;;;7.80;2.90;;;;;;;;;;5111019;27;20403;-60
2023/08/10 04:28:50;;;;;;;5.72;3.72;;;;;;;;;;5110363;27;20050;-60
2023/08/10 04:31:17;;;;;;;5.68;2.95;;;;;;;;;;5118685;27;20403;-60
2023/08/10 04:33:44;;;;;;;5.47;2.90;;;;;;;;;;5104095;27;20055;-60
2023/08/10 04:36:12;;;;;;;5.25;3.33;;;;;;;;;;5093646;28;20056;-60
2023/08/10 04:38:39;;;;;;;6.32;3.08;;;;;;;;;;5110153;28;20454;-60
2023/08/10 04:41:06;;;;;;;6.15;3.17;;;;;;;;;;5099367;28;20473;-60
2023/08/10 04:43:33;;;;;;;5.50;3.08;;;;;;;;;;5093888;28;20439;-60
2023/08/10 04:46:00;;;;;;;8.23;3.90;;;;;;;;;;5092455;28;20048;-60
2023/08/10 04:48:27;;;;;;;6.93;3.00;;;;;;;;;;5091142;28;20055;-60
2023/08/10 04:50:53;;;;;;;7.45;3.30;;;;;;;;;;5089588;28;20051;-60
2023/08/10 04:53:22;;;;;;;4.95;2.92;;;;;;;;;;5091979;28;20416;-60
2023/08/10 04:55:49;;;;;;;7.45;2.80;;;;;;;;;;5093712;28;20055;-60
2023/08/10 04:58:15;;;;;;;3.75;2.78;;;;;;;;;;5092747;28;20051;-60
2023/08/10 05:00:42;;;;;;;5.13;3.40;;;;;;;;;;5093159;28;20067;-60
2023/08/10 05:03:09;;;;;;;8.07;3.72;;;;;;;;;;5078176;28;20059;-60
2023/08/10 05:05:38;;;;;;;5.70;3.28;;;;;;;;;;5076380;28;20048;-60
2023/08/10 05:08:05;;;;;;;7.80;2.50;;;;;;;;;;5088958;28;20048;-61
2023/08/10 05:10:33;;;;;;;5.05;2.65;;;;;;;;;;5081078;28;20047;-60
2023/08/10 05:13:00;;;;;;;7.38;3.63;;;;;;;;;;5090761;28;20075;-38
2023/08/10 05:15:27;;;;;;;5.90;3.20;;;;;;;;;;5089846;28;20040;-38
2023/08/10 05:17:55;;;;;;;7.07;3.38;;;;;;;;;;5093061;28;20048;-38
2023/08/10 05:20:22;;;;;;;5.55;3.30;;;;;;;;;;5090369;28;20056;-38
2023/08/10 05:22:50;;;;;;;7.90;2.92;;;;;;;;;;5091166;28;20052;-38
2023/08/10 05:25:17;;;;;;;6.13;3.50;;;;;;;;;;5093016;28;20472;-38
2023/08/10 05:27:45;;;;;;;6.40;3.28;;;;;;;;;;5092047;28;20504;-38
2023/08/10 05:30:12;;;;;;;5.35;2.95;;;;;;;;;;5092746;28;20052;-38
2023/08/10 05:32:39;;;;;;;6.93;3.60;;;;;;;;;;5092950;27;20059;-39
2023/08/10 05:35:07;;;;;;;4.25;2.63;;;;;;;;;;5112878;28;20109;-38
2023/08/10 05:37:34;;;;;;;7.90;2.60;;;;;;;;;;5113244;28;20427;-38
2023/08/10 05:40:02;;;;;;;6.53;3.38;;;;;;;;;;5111111;28;20407;-38
2023/08/10 05:42:29;;;;;;;8.45;3.13;;;;;;;;;;5112832;28;20058;-38
2023/08/10 05:44:57;;;;;;;6.68;3.50;;;;;;;;;;5112961;28;20044;-38
2023/08/10 05:47:24;;;;;;;6.10;3.33;;;;;;;;;;5111447;28;20058;-38
2023/08/10 05:49:50;;;;;;;8.90;3.75;;;;;;;;;;5115310;27;20475;-38
2023/08/10 05:52:17;;;;;;;7.93;3.28;;;;;;;;;;5108676;28;20446;-38
2023/08/10 05:54:44;;;;;;;8.98;3.70;;;;;;;;;;5110032;28;20048;-38
2023/08/10 05:57:11;;;;;;;6.28;3.28;;;;;;;;;;5108647;28;20048;-39
2023/08/10 05:59:38;;;;;;;7.72;3.90;;;;;;;;;;5109124;28;20047;-39
2023/08/10 06:02:06;;;;;;;9.95;3.83;;;;;;;;;;5110589;28;20055;-60
2023/08/10 06:04:34;;;;;;;8.57;3.45;;;;;;;;;;5107676;28;20051;-60
2023/08/10 06:07:00;;;;;;;5.03;3.35;;;;;;;;;;5109769;28;20043;-60
2023/08/10 06:09:28;;;;;;;7.10;3.83;;;;;;;;;;5107792;28;20052;-60
2023/08/10 06:11:55;;;;;;;8.07;3.80;;;;;;;;;;5111836;28;20052;-60
2023/08/10 06:14:22;;;;;;;6.05;3.60;;;;;;;;;;5111715;28;20055;-60
2023/08/10 06:16:49;;;;;;;6.63;3.85;;;;;;;;;;5109466;28;20435;-60
2023/08/10 06:19:17;;;;;;;7.28;3.88;;;;;;;;;;5109035;28;20078;-60
2023/08/10 06:21:44;;;;;;;5.88;3.40;;;;;;;;;;5109632;28;20048;-59
2023/08/10 06:24:11;;;;;;;6.03;3.60;;;;;;;;;;5116036;28;20051;-59
2023/08/10 06:26:38;;;;;;;7.43;4.10;;;;;;;;;;5110272;28;20385;-59
2023/08/10 06:29:05;;;;;;;10.02;4.65;;;;;;;;;;5108573;28;20062;-59
2023/08/10 06:31:32;;;;;;;7.38;3.75;;;;;;;;;;5111870;28;20051;-60
2023/08/10 06:33:59;;;;;;;8.50;3.90;;;;;;;;;;5106462;27;20048;-61
2023/08/10 06:36:27;;;;;;;9.07;4.35;;;;;;;;;;5112047;28;20040;-60
2023/08/10 06:38:54;;;;;;;7.78;4.63;;;;;;;;;;5114560;28;20523;-60
2023/08/10 06:41:21;;;;;;;7.72;3.90;;;;;;;;;;5116115;28;20416;-60
2023/08/10 06:43:49;;;;;;;6.93;4.05;;;;;;;;;;5117016;28;20051;-60
2023/08/10 06:46:16;;;;;;;9.15;4.57;;;;;;;;;;5116103;28;20067;-60
2023/08/10 06:48:42;;;;;;;7.72;4.57;;;;;;;;;;5116452;28;20055;-60
2023/08/10 06:51:09;;;;;;;7.82;4.47;;;;;;;;;;5115777;28;20075;-59
2023/08/10 06:53:38;;;;;;;6.45;3.92;;;;;;;;;;5116359;28;20059;-60
2023/08/10 06:56:05;;;;;;;7.70;4.70;;;;;;;;;;5115965;28;20047;-60
2023/08/10 06:58:32;;;;;;;9.10;4.03;;;;;;;;;;5116221;28;20054;-59
2023/08/10 07:01:00;;;;;;;7.07;4.15;;;;;;;;;;5116171;28;20497;-59
2023/08/10 07:03:27;;;;;;;6.78;4.25;;;;;;;;;;5116280;28;20480;-61
2023/08/10 07:05:55;;;;;;;7.95;4.10;;;;;;;;;;5095676;28;20390;-60
2023/08/10 07:08:22;;;;;;;8.80;4.43;;;;;;;;;;5095514;28;20416;-61
2023/08/10 07:10:50;;;;;;;6.53;4.18;;;;;;;;;;5094837;28;20056;-60
2023/08/10 07:13:17;;;;;;;7.72;4.10;;;;;;;;;;5095567;28;20056;-61
2023/08/10 07:15:45;;;;;;;11.52;5.22;;;;;;;;;;5095180;28;20051;-60
2023/08/10 07:18:12;;;;;;;8.63;3.65;;;;;;;;;;5095590;28;20048;-61
2023/08/10 07:20:40;;;;;;;6.95;3.35;;;;;;;;;;5094997;28;20056;-61
2023/08/10 07:23:07;;;;;;;7.75;3.88;;;;;;;;;;5095884;28;20047;-61
2023/08/10 07:25:33;;;;;;;5.68;3.25;;;;;;;;;;5094998;28;20412;-61
2023/08/10 07:28:02;;;;;;;8.02;3.58;;;;;;;;;;5095528;28;20063;-60
2023/08/10 07:30:28;;;;;;;7.07;3.03;;;;;;;;;;5095299;28;20052;-61
2023/08/10 07:32:56;;;;;;;7.97;3.40;;;;;;;;;;5098327;28;20427;-59
2023/08/10 07:35:23;;;;;;;6.97;3.00;;;;;;;;;;5115302;28;20464;-61
2023/08/10 07:37:50;;;;;;;7.50;3.20;;;;;;;;;;5128424;27;20491;-61
2023/08/10 07:40:17;;;;;;;8.15;3.17;;;;;;;;;;5136118;27;20047;-61
2023/08/10 07:42:44;;;;;;;4.90;2.55;;;;;;;;;;5135809;27;20407;-62
2023/08/10 07:45:12;;;;;;;8.93;2.50;;;;;;;;;;5135719;27;20055;-61
2023/08/10 07:47:39;;;;;;;5.53;2.45;;;;;;;;;;5135517;27;20055;-61
2023/08/10 07:50:07;;;;;;;6.22;2.80;;;;;;;;;;5135612;27;20050;-61
2023/08/10 07:52:33;;;;;;;7.63;2.78;;;;;;;;;;5127577;27;20444;-61
2023/08/10 07:55:00;;;;;;;4.65;2.10;;;;;;;;;;5135657;27;20058;-59
2023/08/10 07:57:27;;;;;;;6.82;2.38;;;;;;;;;;5135557;27;20043;-61
2023/08/10 07:59:54;;;;;;;6.28;2.45;;;;;;;;;;5135612;27;20074;-59
2023/08/10 08:02:27;;;;;;;6.43;2.40;;;;;;;;;;5135665;27;20055;-61
2023/08/10 08:04:54;;;;;;;8.00;2.60;;;;;;;;;;5123728;27;20051;-62
2023/08/10 08:07:21;;;;;;;6.15;2.58;;;;;;;;;;5114524;28;20403;-61
2023/08/10 08:09:47;;;;;;;5.70;2.67;;;;;;;;;;5114455;28;20063;-62
2023/08/10 08:12:14;;;;;;;6.15;2.38;;;;;;;;;;5114777;28;20051;-59
2023/08/10 08:14:43;;;;;;;7.95;2.40;;;;;;;;;;5114724;28;20056;-62
2023/08/10 08:17:09;;;;;;;6.20;2.33;;;;;;;;;;5114837;28;20388;-62
2023/08/10 08:19:37;;;;;;;6.03;2.22;;;;;;;;;;5114958;28;20060;-60
2023/08/10 08:22:04;;;;;;;8.30;3.03;;;;;;;;;;5114773;28;20070;-60
2023/08/10 08:24:31;;;;;;;20.58;4.90;;;;;;;;;;5114352;28;20055;-60
2023/08/10 08:26:58;;;;;;;5.85;2.40;;;;;;;;;;5114784;28;20044;-61
2023/08/10 08:29:25;;;;;;;4.60;1.88;;;;;;;;;;5114932;28;20051;-60
2023/08/10 08:31:51;;;;;;;3.60;1.55;;;;;;;;;;5114824;28;20059;-60
2023/08/10 08:34:18;;;;;;;5.70;1.75;;;;;;;;;;5099039;28;20493;-60
2023/08/10 08:36:47;;;;;;;6.93;2.20;;;;;;;;;;5093679;28;20043;-60
2023/08/10 08:39:14;;;;;;;3.95;1.92;;;;;;;;;;5097793;28;20055;-60
2023/08/10 08:41:42;;;;;;;48.17;12.15;;;;;;;;;;5107105;28;20062;-61
2023/08/10 08:44:09;;;;;;;6.07;2.10;;;;;;;;;;5113882;28;20480;-60
2023/08/10 08:46:39;;;;;;;4.82;2.08;;;;;;;;;;5113496;28;20047;-61
2023/08/10 08:49:06;;;;;;;5.88;1.70;;;;;;;;;;5113940;28;20051;-61
2023/08/10 08:51:33;;;;;;;7.33;1.83;;;;;;;;;;5113924;28;20388;-60
2023/08/10 08:54:02;;;;;;;4.65;1.70;;;;;;;;;;5114211;28;20052;-60
2023/08/10 08:56:29;;;;;;;30.70;5.47;;;;;;;;;;5113911;28;20426;-61
2023/08/10 08:58:56;;;;;;;7.85;2.08;;;;;;;;;;5114175;28;20412;-62
2023/08/10 09:01:22;;;;;;;7.20;1.73;;;;;;;;;;5113972;28;20052;-61
2023/08/10 09:03:49;;;;;;;3.80;2.13;;;;;;;;;;5114043;28;20404;-61
2023/08/10 09:06:16;;;;;;;3.60;1.35;;;;;;;;;;5113822;28;20052;-61
2023/08/10 09:08:43;;;;;;;2.63;1.45;;;;;;;;;;5114141;28;20058;-61
2023/08/10 09:11:12;;;;;;;3.47;1.38;;;;;;;;;;5113484;28;20048;-62
2023/08/10 09:13:38;;;;;;;3.65;1.65;;;;;;;;;;5113583;28;20051;-61
2023/08/10 09:16:06;;;;;;;3.30;1.20;;;;;;;;;;5113843;28;20480;-60
2023/08/10 09:18:33;;;;;;;4.07;1.55;;;;;;;;;;5113440;28;20055;-60
2023/08/10 09:21:23;;;;;;;2.80;1.50;;;;;;;;;;5113167;28;20082;-60
2023/08/10 09:23:53;;;;;;;5.07;1.65;;;;;;;;;;5106609;28;20868;-60
2023/08/10 09:26:22;;;;;;;3.45;1.15;;;;;;;;;;5113650;28;20048;-60
2023/08/10 09:28:49;;;;;;;4.15;1.60;;;;;;;;;;5114712;28;20396;-60
2023/08/10 09:31:23;;;;;;;3.08;1.30;;;;;;;;;;5113006;28;20047;-60
2023/08/10 09:33:53;;;;;;;3.45;1.40;;;;;;;;;;5123695;27;20059;-60
2023/08/10 09:36:22;;;;;;;28.98;2.88;;;;;;;;;;5133635;27;20051;-60
2023/08/10 09:38:50;;;;;;;4.15;1.65;;;;;;;;;;5133448;27;20058;-60
2023/08/10 09:41:17;;;;;;;6.97;1.90;;;;;;;;;;5134239;27;20055;-61
2023/08/10 09:43:45;;;;;;;3.23;1.30;;;;;;;;;;5133663;27;20058;-60
2023/08/10 09:46:13;;;;;;;2.45;1.27;;;;;;;;;;5133356;27;21007;-60
2023/08/10 09:48:40;;;;;;;4.50;1.52;;;;;;;;;;5133528;27;20047;-63
2023/08/10 09:51:08;;;;;;;3.47;1.40;;;;;;;;;;5133465;27;20055;-60
2023/08/10 09:53:35;;;;;;;8.23;1.73;;;;;;;;;;5133052;27;20062;-59
2023/08/10 09:56:03;;;;;;;3.88;1.42;;;;;;;;;;5133000;27;20058;-60
2023/08/10 09:58:30;;;;;;;7.38;1.70;;;;;;;;;;5133257;27;20062;-60
2023/08/10 10:00:59;;;;;;;3.65;1.40;;;;;;;;;;5133655;27;20054;-60
2023/08/10 10:03:29;;;;;;;5.63;2.00;;;;;;;;;;5132985;27;20047;-60
2023/08/10 10:05:57;;;;;;;3.33;1.42;;;;;;;;;;5132852;27;20047;-60
2023/08/10 10:08:23;;;;;;;;;;;;;;;;;;5133944;27;20047;-60
2023/08/10 10:10:50;;;;;;;3.15;1.25;;;;;;;;;;5133390;27;19919;-60
2023/08/10 10:13:17;;;;;;;2.97;1.35;;;;;;;;;;5133229;27;20058;-60
2023/08/10 10:15:44;;;;;;;5.20;1.50;;;;;;;;;;5132930;27;20062;-59
2023/08/10 10:18:13;;;;;;;2.78;1.42;;;;;;;;;;5133007;28;20043;-60
2023/08/10 10:20:41;;;;;;;4.28;1.63;;;;;;;;;;5133078;28;20388;-60
2023/08/10 10:23:13;;;;;;;3.92;1.50;;;;;;;;;;5133129;28;20380;-59
2023/08/10 10:25:40;;;;;;;5.00;1.50;;;;;;;;;;5132869;28;20392;-60
2023/08/10 10:28:12;;;;;;;2.60;1.53;;;;;;;;;;5132752;28;20055;-60
2023/08/10 10:30:53;;;;;;;5.43;2.00;;;;;;;;;;5132809;28;20484;-60
2023/08/10 10:33:22;;;;;;;3.08;1.70;;;;;;;;;;5132577;28;20055;-60
2023/08/10 10:36:03;;;;;;;2.90;1.50;;;;;;;;;;5133064;28;20067;-60
2023/08/10 10:38:30;;;;;;;5.72;2.05;;;;;;;;;;5132597;28;20522;-59
2023/08/10 10:41:07;;;;;;;4.68;1.60;;;;;;;;;;5132566;28;20051;-60
2023/08/10 10:43:34;;;;;;;;;;;;;;;;;;5133335;28;20062;-60
2023/08/10 10:46:01;;;;;;;3.42;1.60;;;;;;;;;;5132751;28;20391;-60
2023/08/10 10:48:35;;;;;;;2.95;1.60;;;;;;;;;;5132614;28;20047;-60
2023/08/10 10:51:02;;;;;;;9.93;2.22;;;;;;;;;;5132702;28;20125;-59
2023/08/10 10:53:29;;;;;;;10.88;1.73;;;;;;;;;;5133126;28;20047;-60
2023/08/10 10:55:56;;;;;;;5.60;2.00;;;;;;;;;;5133186;28;20058;-60
2023/08/10 10:58:25;;;;;;;6.60;2.30;;;;;;;;;;5132536;28;20054;-60
2023/08/10 11:00:52;;;;;;;3.47;1.92;;;;;;;;;;5132576;28;20071;-60
2023/08/10 11:03:19;;;;;;;3.78;1.73;;;;;;;;;;5132942;28;20058;-60
2023/08/10 11:05:47;;;;;;;3.17;1.50;;;;;;;;;;5132985;28;20480;-60
2023/08/10 11:08:15;;;;;;;4.57;1.60;;;;;;;;;;5133525;27;20058;-59
2023/08/10 11:10:43;;;;;;;2.95;1.55;;;;;;;;;;5136721;27;20055;-60
2023/08/10 11:13:11;;;;;;;4.32;1.55;;;;;;;;;;5136274;27;20400;-60
2023/08/10 11:15:37;;;;;;;;;;;;;;;;;;5136896;27;20073;-60
2023/08/10 11:18:09;;;;;;;4.65;1.60;;;;;;;;;;5136403;27;19920;-60
2023/08/10 11:20:42;;;;;;;2.53;1.48;;;;;;;;;;5136401;27;20047;-60
2023/08/10 11:23:10;;;;;;;3.60;1.55;;;;;;;;;;5136569;27;20062;-60
2023/08/10 11:25:37;;;;;;;3.90;1.52;;;;;;;;;;5136366;27;20047;-59
2023/08/10 11:28:04;;;;;;;3.35;1.60;;;;;;;;;;5136100;27;20051;-60
2023/08/10 11:30:30;;;;;;;5.43;2.03;;;;;;;;;;5136437;27;20055;-60
2023/08/10 11:32:58;;;;;;;3.15;1.50;;;;;;;;;;5135898;27;20051;-59
2023/08/10 11:35:25;;;;;;;8.23;1.63;;;;;;;;;;5135841;27;20066;-60
2023/08/10 11:37:52;;;;;;;4.00;1.97;;;;;;;;;;5135767;27;20047;-60
2023/08/10 11:40:21;;;;;;;3.33;1.57;;;;;;;;;;5136010;27;20457;-60
2023/08/10 11:42:49;;;;;;;3.83;1.83;;;;;;;;;;5136158;27;20058;-59
2023/08/10 11:45:19;;;;;;;4.13;1.60;;;;;;;;;;5135896;27;20407;-59
2023/08/10 11:47:47;;;;;;;3.55;1.52;;;;;;;;;;5135844;27;20051;-59
2023/08/10 11:50:16;;;;;;;4.30;1.70;;;;;;;;;;5135810;27;20053;-60
2023/08/10 11:52:43;;;;;;;4.97;2.10;;;;;;;;;;5136211;27;20047;-60
2023/08/10 11:55:12;;;;;;;6.45;1.70;;;;;;;;;;5135919;27;20043;-61
2023/08/10 11:57:42;;;;;;;4.43;1.50;;;;;;;;;;5135717;27;20055;-60
2023/08/10 12:00:25;;;;;;;4.18;1.45;;;;;;;;;;5135787;27;20055;-60
2023/08/10 12:03:14;;;;;;;3.78;1.60;;;;;;;;;;5135026;27;20062;-59
2023/08/10 12:05:42;;;;;;;4.03;1.70;;;;;;;;;;5129294;27;20062;-59
2023/08/10 12:08:10;;;;;;;3.80;1.45;;;;;;;;;;5135313;27;20062;-60
2023/08/10 12:10:37;;;;;;;3.75;1.75;;;;;;;;;;5135739;27;20046;-59
2023/08/10 12:13:06;;;;;;;3.35;1.60;;;;;;;;;;5135312;27;20086;-60
2023/08/10 12:15:35;;;;;;;4.50;1.80;;;;;;;;;;5135578;27;20066;-60
2023/08/10 12:18:03;;;;;;;2.42;1.40;;;;;;;;;;5135383;27;20047;-60
2023/08/10 12:20:30;;;;;;;10.27;2.30;;;;;;;;;;5133909;27;20385;-59
2023/08/10 12:22:57;;;;;;;4.13;1.65;;;;;;;;;;5135047;27;20047;-59
2023/08/10 12:25:23;;;;;;;4.03;1.50;;;;;;;;;;5134807;27;20054;-60
2023/08/10 12:27:50;;;;;;;3.35;1.77;;;;;;;;;;5134388;27;20507;-60
2023/08/10 12:30:18;;;;;;;5.10;1.90;;;;;;;;;;5134706;27;20055;-59
2023/08/10 12:32:45;;;;;;;11.95;2.13;;;;;;;;;;5135231;27;20058;-59
2023/08/10 12:35:12;;;;;;;6.03;1.90;;;;;;;;;;5134987;27;20047;-59
2023/08/10 12:37:39;;;;;;;4.18;2.28;;;;;;;;;;5134426;27;20476;-60
2023/08/10 12:40:07;;;;;;;2.70;1.57;;;;;;;;;;5134980;27;20055;-59
2023/08/10 12:42:36;;;;;;;3.80;1.13;;;;;;;;;;5135067;27;20051;-59
2023/08/10 12:45:03;;;;;;;3.10;1.60;;;;;;;;;;5135361;27;20050;-59
2023/08/10 12:47:31;;;;;;;1.95;1.35;;;;;;;;;;5134671;27;20488;-60
2023/08/10 12:49:58;;;;;;;3.78;1.80;;;;;;;;;;5115996;27;20055;-61
2023/08/10 12:52:24;;;;;;;3.30;1.42;;;;;;;;;;5114201;28;20055;-60
2023/08/10 12:54:51;;;;;;;2.45;1.30;;;;;;;;;;5113886;28;20373;-59
2023/08/10 12:57:18;;;;;;;4.82;1.73;;;;;;;;;;5114241;28;20056;-61
2023/08/10 12:59:45;;;;;;;3.40;1.40;;;;;;;;;;5113747;28;20054;-61
2023/08/10 13:02:12;;;;;;;7.15;1.98;;;;;;;;;;5114242;28;20507;-60
2023/08/10 13:04:40;;;;;;;3.58;1.55;;;;;;;;;;5113630;28;20054;-59
2023/08/10 13:07:08;;;;;;;2.60;1.58;;;;;;;;;;5113515;28;20058;-59
2023/08/10 13:09:35;;;;;;;3.13;1.50;;;;;;;;;;5113988;28;20047;-59
2023/08/10 13:12:02;;;;;;;3.93;1.63;;;;;;;;;;5113418;28;20047;-59
2023/08/10 13:14:29;;;;;;;4.37;1.53;;;;;;;;;;5113929;28;20051;-59
2023/08/10 13:16:55;;;;;;;3.95;1.23;;;;;;;;;;5113938;28;20047;-59
2023/08/10 13:19:23;;;;;;;5.40;1.58;;;;;;;;;;5113342;28;20066;-59
2023/08/10 13:21:51;;;;;;;2.78;1.45;;;;;;;;;;5113485;28;20131;-59
2023/08/10 13:24:18;;;;;;;;;;;;;;;;;;5113933;28;20055;-59
2023/08/10 13:26:47;;;;;;;10.68;1.70;;;;;;;;;;5113716;28;20299;-59
2023/08/10 13:29:14;;;;;;;5.68;1.60;;;;;;;;;;5113502;28;20055;-59
2023/08/10 13:31:41;;;;;;;3.35;1.20;;;;;;;;;;5112978;28;20060;-59
2023/08/10 13:34:10;;;;;;;8.38;2.20;;;;;;;;;;5124044;27;20058;-59
2023/08/10 13:36:41;;;;;;;5.43;1.58;;;;;;;;;;5133249;27;20074;-60
2023/08/10 13:39:10;;;;;;;4.28;1.33;;;;;;;;;;5133759;27;20396;-59
2023/08/10 13:41:36;;;;;;;;;;;;;;;;;;5134200;27;20081;-59
2023/08/10 13:44:03;;;;;;;6.60;1.70;;;;;;;;;;5133550;27;20351;-59
2023/08/10 13:46:30;;;;;;;2.20;1.13;;;;;;;;;;5133694;27;20062;-60
2023/08/10 13:48:57;;;;;;;5.10;1.70;;;;;;;;;;5133429;27;20365;-60
2023/08/10 13:51:24;;;;;;;6.68;1.55;;;;;;;;;;5133149;27;20051;-60
2023/08/10 13:53:51;;;;;;;2.28;1.30;;;;;;;;;;5133161;27;20051;-59
2023/08/10 13:56:21;;;;;;;5.13;1.42;;;;;;;;;;5133334;27;20404;-59
2023/08/10 13:58:48;;;;;;;4.05;1.30;;;;;;;;;;5132897;27;20054;-60
2023/08/10 14:01:14;;;;;;;2.60;1.20;;;;;;;;;;5133268;27;20058;-60
2023/08/10 14:03:41;;;;;;;3.78;1.50;;;;;;;;;;5133186;27;20495;-59
2023/08/10 14:06:08;;;;;;;4.60;1.50;;;;;;;;;;5133245;27;20055;-60
2023/08/10 14:08:40;;;;;;;2.60;1.48;;;;;;;;;;5133143;27;20043;-60
2023/08/10 14:11:07;;;;;;;4.32;2.00;;;;;;;;;;5132918;27;20050;-60
2023/08/10 14:13:36;;;;;;;3.75;1.30;;;;;;;;;;5132864;27;20055;-61
2023/08/10 14:16:02;;;;;;;5.82;1.63;;;;;;;;;;5133217;27;20412;-61
2023/08/10 14:18:29;;;;;;;3.42;1.50;;;;;;;;;;5133140;27;20058;-61
2023/08/10 14:20:58;;;;;;;11.82;2.15;;;;;;;;;;5133270;28;20054;-61
2023/08/10 14:23:26;;;;;;;7.38;1.52;;;;;;;;;;5132813;28;20051;-61
2023/08/10 14:25:56;;;;;;;5.10;1.63;;;;;;;;;;5133205;28;20050;-61
2023/08/10 14:28:23;;;;;;;21.42;2.70;;;;;;;;;;5132882;28;20464;-61
2023/08/10 14:30:51;;;;;;;8.35;1.80;;;;;;;;;;5132601;28;20384;-61
2023/08/10 14:33:19;;;;;;;4.35;1.65;;;;;;;;;;5132591;28;20080;-61
2023/08/10 14:35:46;;;;;;;3.33;1.37;;;;;;;;;;5132847;28;20047;-61
2023/08/10 14:38:12;;;;;;;5.38;1.63;;;;;;;;;;5132661;28;20047;-61
2023/08/10 14:40:39;;;;;;;4.50;1.70;;;;;;;;;;5133113;28;20059;-61
2023/08/10 14:43:06;;;;;;;3.55;1.60;;;;;;;;;;5133369;27;20052;-61
2023/08/10 14:45:33;;;;;;;3.08;1.35;;;;;;;;;;5136752;27;20055;-61